createdAt,value
2023-01-11T00:03:29.915Z,17.80
2023-01-11T00:07:18.702Z,15.20
2023-01-11T00:11:07.536Z,15.90
2023-01-11T00:14:56.156Z,14.90
2023-01-11T00:18:44.805Z,14.30
2023-01-11T00:22:33.470Z,13.80
2023-01-11T00:26:22.636Z,14.90
2023-01-11T00:30:11.295Z,14.70
2023-01-11T00:33:59.931Z,11.80
2023-01-11T00:37:41.175Z,13.50
2023-01-11T00:41:28.341Z,12.00
2023-01-11T00:45:15.023Z,11.60
2023-01-11T00:49:03.714Z,12.90
2023-01-11T00:52:52.351Z,13.90
2023-01-11T00:56:30.884Z,12.70
2023-01-11T01:00:19.555Z,14.10
2023-01-11T01:04:00.946Z,13.60
2023-01-11T01:07:49.652Z,13.50
2023-01-11T01:11:38.363Z,14.30
2023-01-11T01:15:27.059Z,13.60
2023-01-11T01:19:19.320Z,14.70
2023-01-11T01:22:40.647Z,14.30
2023-01-11T01:26:27.841Z,12.60
2023-01-11T01:30:06.407Z,11.70
2023-01-11T01:33:55.053Z,14.00
2023-01-11T01:37:43.810Z,12.60
2023-01-11T01:41:32.475Z,14.50
2023-01-11T01:45:37.914Z,14.20
2023-01-11T01:49:44.537Z,13.10
2023-01-11T01:53:33.223Z,14.50
2023-01-11T01:57:30.769Z,12.80
2023-01-11T02:01:19.589Z,13.00
2023-01-11T02:05:07.388Z,13.20
2023-01-11T02:08:59.079Z,14.10
2023-01-11T02:12:47.801Z,14.80
2023-01-11T02:16:36.465Z,13.90
2023-01-11T02:20:27.990Z,14.70
2023-01-11T02:24:31.503Z,13.90
2023-01-11T02:28:38.379Z,14.90
2023-01-11T02:32:35.815Z,14.30
2023-01-11T02:36:36.579Z,15.60
2023-01-11T02:40:31.119Z,16.20
2023-01-11T02:44:36.483Z,16.60
2023-01-11T02:48:37.021Z,16.00
2023-01-11T02:52:25.727Z,14.60
2023-01-11T02:56:14.374Z,16.30
2023-01-11T03:00:03.082Z,15.40
2023-01-11T03:03:47.665Z,17.30
2023-01-11T03:07:54.195Z,18.00
2023-01-11T03:11:50.956Z,16.50
2023-01-11T03:16:03.716Z,16.80
2023-01-11T03:19:53.861Z,17.30
2023-01-11T03:23:47.124Z,17.30
2023-01-11T03:27:36.649Z,19.30
2023-01-11T03:31:33.019Z,17.00
2023-01-11T03:35:27.366Z,17.20
2023-01-11T03:39:18.769Z,17.00
2023-01-11T03:43:05.955Z,17.90
2023-01-11T03:47:00.486Z,18.60
2023-01-11T03:50:52.008Z,16.90
2023-01-11T03:54:33.790Z,19.00
2023-01-11T03:58:25.244Z,18.70
2023-01-11T04:02:13.942Z,20.50
2023-01-11T04:06:02.691Z,19.00
2023-01-11T04:09:51.326Z,20.90
2023-01-11T04:13:40.119Z,21.60
2023-01-11T04:17:28.850Z,21.50
2023-01-11T04:21:17.652Z,20.50
2023-01-11T04:24:55.259Z,18.50
2023-01-11T04:28:43.907Z,19.40
2023-01-11T04:32:32.612Z,20.70
2023-01-11T04:36:19.996Z,18.60
2023-01-11T04:39:58.418Z,18.10
2023-01-11T04:43:47.037Z,18.70
2023-01-11T04:47:35.734Z,18.40
2023-01-11T04:51:27.194Z,19.70
2023-01-11T04:55:15.854Z,18.70
2023-01-11T04:59:04.537Z,18.60
2023-01-11T05:02:53.262Z,20.90
2023-01-11T05:06:40.734Z,17.40
2023-01-11T05:10:29.470Z,18.10
2023-01-11T05:14:16.780Z,21.70
2023-01-11T05:18:05.457Z,21.00
2023-01-11T05:21:54.168Z,20.80
2023-01-11T05:25:42.969Z,17.80
2023-01-11T05:29:31.698Z,18.60
2023-01-11T05:33:20.389Z,17.70
2023-01-11T05:37:09.250Z,16.10
2023-01-11T05:40:58.298Z,14.70
2023-01-11T05:44:45.444Z,16.00
2023-01-11T05:48:34.139Z,17.30
2023-01-11T05:52:22.940Z,12.80
2023-01-11T05:55:51.487Z,13.80
2023-01-11T05:59:33.381Z,14.00
2023-01-11T06:03:04.358Z,12.10
2023-01-11T06:06:53.422Z,13.40
2023-01-11T06:10:42.208Z,11.20
2023-01-11T06:14:30.888Z,11.80
2023-01-11T06:18:12.144Z,11.50
2023-01-11T06:21:59.726Z,10.90
2023-01-11T06:25:48.549Z,11.50
2023-01-11T06:29:07.504Z,12.00
2023-01-11T06:32:08.708Z,14.40
2023-01-11T06:35:51.208Z,13.20
2023-01-11T06:39:29.851Z,14.90
2023-01-11T06:43:08.442Z,20.20
2023-01-11T06:46:47.052Z,17.40
2023-01-11T06:50:28.352Z,18.60
2023-01-11T06:53:47.234Z,16.60
2023-01-11T06:56:47.986Z,13.40
2023-01-11T07:00:26.680Z,12.40
2023-01-11T07:04:15.587Z,15.00
2023-01-11T07:07:52.827Z,19.20
2023-01-11T07:11:38.900Z,16.20
2023-01-11T07:15:27.672Z,17.40
2023-01-11T07:19:16.460Z,23.10
2023-01-11T07:23:05.224Z,19.70
2023-01-11T07:26:41.077Z,21.10
2023-01-11T07:29:52.357Z,24.90
2023-01-11T07:33:41.108Z,15.90
2023-01-11T07:37:28.075Z,14.30
2023-01-11T07:41:18.207Z,12.70
2023-01-11T07:44:59.669Z,12.30
2023-01-11T07:48:27.615Z,11.60
2023-01-11T07:52:16.405Z,15.60
2023-01-11T07:55:44.119Z,12.50
2023-01-11T07:59:25.689Z,16.30
2023-01-11T08:03:14.523Z,15.10
2023-01-11T08:07:03.473Z,13.00
2023-01-11T08:10:52.162Z,10.30
2023-01-11T08:14:31.967Z,9.50
2023-01-11T08:17:58.350Z,10.70
2023-01-11T08:21:39.956Z,11.00
2023-01-11T08:25:28.702Z,12.50
2023-01-11T08:29:17.396Z,12.60
2023-01-11T08:32:57.169Z,11.90
2023-01-11T08:36:45.955Z,9.90
2023-01-11T08:40:34.826Z,12.40
2023-01-11T08:44:33.599Z,11.40
2023-01-11T08:48:22.185Z,12.10
2023-01-11T08:52:11.026Z,12.70
2023-01-11T08:55:59.718Z,12.10
2023-01-11T08:59:48.527Z,12.00
2023-01-11T09:03:37.242Z,12.20
2023-01-11T09:07:25.988Z,13.20
2023-01-11T09:11:13.373Z,10.40
2023-01-11T09:15:02.077Z,12.70
2023-01-11T09:18:32.594Z,13.10
2023-01-11T09:22:19.925Z,12.30
2023-01-11T09:26:08.823Z,11.70
2023-01-11T09:29:57.581Z,12.20
2023-01-11T09:33:46.299Z,13.10
2023-01-11T09:37:35.173Z,12.40
2023-01-11T09:41:32.789Z,12.30
2023-01-11T09:45:21.544Z,10.20
2023-01-11T09:49:10.327Z,13.60
2023-01-11T09:52:59.116Z,13.20
2023-01-11T09:56:40.591Z,10.80
2023-01-11T10:00:28.907Z,11.50
2023-01-11T10:04:35.655Z,11.60
2023-01-11T10:18:39.625Z,17.20
2023-01-11T10:21:11.448Z,14.30
2023-01-11T10:25:05.916Z,12.50
2023-01-11T10:28:57.689Z,13.00
2023-01-11T10:32:55.342Z,11.50
2023-01-11T10:36:50.131Z,12.40
2023-01-11T10:40:50.698Z,12.90
2023-01-11T10:44:41.970Z,12.30
2023-01-11T10:48:39.690Z,11.60
2023-01-11T10:52:28.379Z,10.70
2023-01-11T10:55:43.155Z,12.20
2023-01-11T10:59:37.712Z,11.70
2023-01-11T11:03:27.755Z,12.10
2023-01-11T11:07:11.864Z,11.60
2023-01-11T11:11:15.856Z,10.90
2023-01-11T11:14:57.361Z,11.90
2023-01-11T11:18:35.105Z,13.10
2023-01-11T11:22:13.557Z,13.00
2023-01-11T11:25:47.835Z,10.90
2023-01-11T11:29:29.084Z,12.30
2023-01-11T11:33:20.722Z,12.80
2023-01-11T11:37:09.459Z,12.10
2023-01-11T11:40:50.727Z,11.80
2023-01-11T11:44:45.179Z,10.70
2023-01-11T11:48:27.846Z,11.40
2023-01-11T11:52:15.102Z,10.70
2023-01-11T11:56:03.816Z,11.70
2023-01-11T11:59:47.760Z,11.20
2023-01-11T12:03:39.133Z,10.10
2023-01-11T12:07:27.943Z,10.90
2023-01-11T12:11:16.665Z,11.20
2023-01-11T12:14:58.370Z,10.20
2023-01-11T12:18:48.616Z,12.00
2023-01-11T12:22:27.524Z,9.80
2023-01-11T12:26:25.263Z,10.20
2023-01-11T12:30:41.174Z,10.10
2023-01-11T12:34:32.694Z,9.90
2023-01-11T12:38:42.418Z,11.00
2023-01-11T12:42:33.801Z,10.80
2023-01-11T12:46:24.210Z,10.70
2023-01-11T12:50:17.763Z,10.10
2023-01-11T12:58:14.440Z,10.70
2023-01-11T13:02:18.591Z,8.30
2023-01-11T13:10:12.036Z,10.20
2023-01-11T13:14:20.083Z,9.30
2023-01-11T13:18:18.598Z,9.40
2023-01-11T13:22:13.307Z,10.40
2023-01-11T13:26:08.049Z,9.30
2023-01-11T13:30:14.838Z,10.60
2023-01-11T13:34:06.733Z,10.30
2023-01-11T13:38:10.402Z,9.90
2023-01-11T13:42:08.071Z,9.80
2023-01-11T13:46:05.579Z,9.50
2023-01-11T13:49:52.900Z,10.60
2023-01-11T13:53:41.698Z,10.40
2023-01-11T13:57:31.715Z,10.50
2023-01-11T14:01:20.622Z,11.00
2023-01-11T14:05:04.479Z,10.20
2023-01-11T14:08:57.946Z,11.10
2023-01-11T14:12:54.253Z,9.60
2023-01-11T14:16:45.783Z,10.60
2023-01-11T14:20:40.291Z,11.00
2023-01-11T14:24:31.096Z,11.50
2023-01-11T14:28:20.885Z,10.70
2023-01-11T14:32:14.107Z,10.60
2023-01-11T14:36:11.864Z,12.20
2023-01-11T14:39:57.229Z,11.70
2023-01-11T14:44:10.203Z,11.40
2023-01-11T14:48:04.683Z,12.50
2023-01-11T14:51:53.607Z,11.10
2023-01-11T14:55:45.543Z,11.20
2023-01-11T14:59:21.550Z,10.60
2023-01-11T15:03:13.421Z,12.20
2023-01-11T15:06:54.859Z,13.10
2023-01-11T15:10:44.858Z,11.90
2023-01-11T15:14:36.485Z,11.00
2023-01-11T15:18:13.111Z,11.10
2023-01-11T15:22:04.634Z,11.20
2023-01-11T15:25:41.714Z,12.40
2023-01-11T15:29:42.259Z,11.80
2023-01-11T15:33:31.062Z,11.10
2023-01-11T15:37:28.369Z,12.20
2023-01-11T15:41:17.630Z,12.70
2023-01-11T15:45:15.060Z,12.90
2023-01-11T15:49:25.049Z,10.40
2023-01-11T15:53:22.627Z,12.20
2023-01-11T15:56:51.894Z,12.70
2023-01-11T16:00:51.282Z,12.20
2023-01-11T16:04:43.018Z,12.60
2023-01-11T16:08:37.647Z,12.40
2023-01-11T16:12:24.487Z,12.60
2023-01-11T16:16:15.161Z,11.40
2023-01-11T16:19:46.992Z,12.60
2023-01-11T16:23:38.733Z,13.40
2023-01-11T16:27:09.532Z,13.60
2023-01-11T16:31:00.451Z,12.60
2023-01-11T16:34:49.230Z,10.30
2023-01-11T16:38:37.996Z,12.00
2023-01-11T16:42:19.489Z,10.80
2023-01-11T16:46:16.945Z,9.90
2023-01-11T16:50:07.994Z,12.10
2023-01-11T16:53:59.591Z,11.90
2023-01-11T16:57:48.348Z,9.60
2023-01-11T17:01:38.360Z,11.80
2023-01-11T17:05:29.687Z,10.00
2023-01-11T17:09:24.207Z,10.90
2023-01-11T17:13:12.896Z,9.90
2023-01-11T17:17:01.930Z,10.90
2023-01-11T17:20:33.402Z,11.80
2023-01-11T17:24:22.194Z,15.60
2023-01-11T17:28:13.645Z,16.90
2023-01-11T17:32:02.430Z,16.90
2023-01-11T17:35:51.293Z,16.80
2023-01-11T17:39:39.974Z,12.80
2023-01-11T17:43:26.920Z,11.50
2023-01-11T17:47:17.277Z,11.80
2023-01-11T17:51:08.703Z,13.60
2023-01-11T17:55:03.399Z,13.30
2023-01-11T17:58:54.894Z,12.60
2023-01-11T18:02:52.460Z,11.70
2023-01-11T18:06:30.642Z,12.30
2023-01-11T18:10:15.842Z,12.60
2023-01-11T18:14:10.222Z,11.20
2023-01-11T18:18:12.558Z,10.20
2023-01-11T18:22:07.268Z,11.50
2023-01-11T18:25:49.482Z,10.30
2023-01-11T18:29:28.030Z,9.80
2023-01-11T18:32:20.094Z,10.60
2023-01-11T18:36:14.766Z,11.10
2023-01-11T18:40:03.458Z,11.10
2023-01-11T18:43:42.204Z,9.80
2023-01-11T18:47:30.940Z,10.00
2023-01-11T18:51:10.832Z,12.10
2023-01-11T18:54:59.538Z,11.90
2023-01-11T18:58:48.255Z,12.30
2023-01-11T19:02:38.188Z,11.50
2023-01-11T19:06:27.821Z,12.70
2023-01-11T19:10:16.542Z,12.20
2023-01-11T19:13:33.923Z,11.30
2023-01-11T19:16:55.765Z,12.90
2023-01-11T19:20:34.867Z,13.20
2023-01-11T19:23:25.381Z,11.20
2023-01-11T19:26:27.702Z,12.10
2023-01-11T19:30:06.387Z,11.90
2023-01-11T19:33:55.101Z,12.20
2023-01-11T19:37:33.769Z,10.60
2023-01-11T19:41:22.551Z,10.70
2023-01-11T19:45:13.941Z,12.10
2023-01-11T19:49:02.759Z,11.40
2023-01-11T19:52:51.483Z,11.50
2023-01-11T19:56:42.879Z,10.50
2023-01-11T20:00:31.636Z,9.10
2023-01-11T20:04:20.357Z,11.20
2023-01-11T20:07:59.582Z,9.70
2023-01-11T20:11:38.104Z,9.80
2023-01-11T20:15:26.881Z,10.40
2023-01-11T20:18:29.265Z,10.70
2023-01-11T20:21:29.743Z,10.70
2023-01-11T20:24:31.213Z,11.30
2023-01-11T20:28:02.780Z,11.80
2023-01-11T20:31:50.731Z,11.10
2023-01-11T20:35:24.257Z,11.40
2023-01-11T20:39:03.991Z,12.20
2023-01-11T20:42:29.027Z,13.70
2023-01-11T20:46:00.209Z,14.20
2023-01-11T20:49:31.220Z,13.70
2023-01-11T20:53:20.000Z,14.20
2023-01-11T20:57:08.852Z,14.70
2023-01-11T21:00:50.477Z,13.40
2023-01-11T21:04:30.651Z,15.90
2023-01-11T21:08:09.145Z,16.00
2023-01-11T21:11:50.572Z,16.40
2023-01-11T21:15:28.254Z,16.30
2023-01-11T21:18:43.307Z,19.30
2023-01-11T21:22:22.477Z,18.60
2023-01-11T21:26:11.176Z,17.30
2023-01-11T21:29:59.912Z,18.40
2023-01-11T21:33:48.623Z,20.40
2023-01-11T21:37:37.454Z,19.10
2023-01-11T21:41:22.536Z,17.00
2023-01-11T21:44:37.496Z,17.80
2023-01-11T21:48:08.656Z,14.80
2023-01-11T21:51:43.014Z,14.30
2023-01-11T21:55:29.135Z,15.80
2023-01-11T21:59:17.836Z,16.00
2023-01-11T22:03:06.659Z,16.60
2023-01-11T22:06:53.855Z,18.20
2023-01-11T22:10:42.886Z,17.90
2023-01-11T22:14:31.737Z,15.10
2023-01-11T22:18:20.453Z,17.10
2023-01-11T22:22:12.153Z,18.20
2023-01-11T22:25:40.692Z,16.80
2023-01-11T22:29:31.840Z,20.80
2023-01-11T22:33:20.590Z,19.90
2023-01-11T22:37:09.418Z,23.00
2023-01-11T22:40:58.299Z,20.00
2023-01-11T22:44:47.091Z,19.90
2023-01-11T22:48:28.500Z,21.10
2023-01-11T22:52:07.322Z,20.50
2023-01-11T22:55:48.729Z,21.30
2023-01-11T22:59:37.635Z,18.30
2023-01-11T23:03:26.424Z,19.90
2023-01-11T23:07:11.811Z,16.40
2023-01-11T23:11:00.546Z,18.10
2023-01-11T23:14:41.717Z,18.10
2023-01-11T23:18:15.663Z,16.10
2023-01-11T23:22:04.405Z,17.60
2023-01-11T23:25:53.114Z,16.30
2023-01-11T23:29:41.827Z,17.40
2023-01-11T23:33:30.567Z,16.30
2023-01-11T23:37:12.105Z,17.00
2023-01-11T23:40:58.972Z,16.90
2023-01-11T23:44:47.665Z,17.60
2023-01-11T23:48:36.450Z,18.40
2023-01-11T23:52:23.829Z,18.30
2023-01-11T23:56:12.555Z,16.90
